sensor_id;sensor_type;location;lat;lon;timestamp;pressure;altitude;pressure_sealevel;temperature;humidity
36828;BME280;22766;48.042;11.192;2023-02-02T00:00:46;95475.97;;;3.16;100.00
36828;BME280;22766;48.042;11.192;2023-02-02T00:03:14;95472.03;;;3.25;100.00
36828;BME280;22766;48.042;11.192;2023-02-02T00:05:47;95468.06;;;3.33;100.00
36828;BME280;22766;48.042;11.192;2023-02-02T00:08:18;95476.34;;;3.37;100.00
36828;BME280;22766;48.042;11.192;2023-02-02T00:10:48;95475.28;;;3.27;100.00
36828;BME280;22766;48.042;11.192;2023-02-02T00:13:16;95468.16;;;3.32;100.00
36828;BME280;22766;48.042;11.192;2023-02-02T00:15:43;95469.47;;;3.25;100.00
36828;BME280;22766;48.042;11.192;2023-02-02T00:18:09;95465.91;;;3.27;100.00
36828;BME280;22766;48.042;11.192;2023-02-02T00:20:36;95461.13;;;3.35;100.00
36828;BME280;22766;48.042;11.192;2023-02-02T00:23:03;95475.22;;;3.28;100.00
36828;BME280;22766;48.042;11.192;2023-02-02T00:25:30;95464.44;;;3.23;100.00
36828;BME280;22766;48.042;11.192;2023-02-02T00:27:57;95459.66;;;3.19;100.00
36828;BME280;22766;48.042;11.192;2023-02-02T00:30:23;95452.28;;;3.14;100.00
36828;BME280;22766;48.042;11.192;2023-02-02T00:32:50;95456.63;;;3.00;100.00
36828;BME280;22766;48.042;11.192;2023-02-02T00:35:19;95461.38;;;3.18;100.00
36828;BME280;22766;48.042;11.192;2023-02-02T00:37:45;95456.50;;;3.28;100.00
36828;BME280;22766;48.042;11.192;2023-02-02T00:40:12;95452.41;;;3.25;100.00
36828;BME280;22766;48.042;11.192;2023-02-02T00:42:39;95445.47;;;3.27;100.00
36828;BME280;22766;48.042;11.192;2023-02-02T00:45:06;95448.03;;;3.27;100.00
36828;BME280;22766;48.042;11.192;2023-02-02T00:47:45;95457.84;;;3.33;100.00
36828;BME280;22766;48.042;11.192;2023-02-02T00:50:18;95448.00;;;3.15;100.00
36828;BME280;22766;48.042;11.192;2023-02-02T00:52:46;95444.75;;;3.25;100.00
36828;BME280;22766;48.042;11.192;2023-02-02T00:55:14;95455.19;;;3.22;100.00
36828;BME280;22766;48.042;11.192;2023-02-02T00:57:41;95454.88;;;3.27;100.00
36828;BME280;22766;48.042;11.192;2023-02-02T01:00:13;95444.59;;;3.28;100.00
36828;BME280;22766;48.042;11.192;2023-02-02T01:02:40;95447.41;;;3.24;100.00
36828;BME280;22766;48.042;11.192;2023-02-02T01:05:08;95450.34;;;3.18;100.00
36828;BME280;22766;48.042;11.192;2023-02-02T01:07:35;95451.41;;;3.28;100.00
36828;BME280;22766;48.042;11.192;2023-02-02T01:10:03;95462.81;;;3.22;100.00
36828;BME280;22766;48.042;11.192;2023-02-02T01:12:30;95467.41;;;3.17;100.00
36828;BME280;22766;48.042;11.192;2023-02-02T01:15:00;95452.53;;;3.24;100.00
36828;BME280;22766;48.042;11.192;2023-02-02T01:17:28;95457.28;;;3.16;100.00
36828;BME280;22766;48.042;11.192;2023-02-02T01:19:57;95460.53;;;3.05;100.00
36828;BME280;22766;48.042;11.192;2023-02-02T01:22:24;95461.88;;;3.11;100.00
36828;BME280;22766;48.042;11.192;2023-02-02T01:24:51;95449.44;;;3.19;100.00
36828;BME280;22766;48.042;11.192;2023-02-02T01:27:17;95461.03;;;3.10;100.00
36828;BME280;22766;48.042;11.192;2023-02-02T01:29:44;95450.22;;;3.07;100.00
36828;BME280;22766;48.042;11.192;2023-02-02T01:32:14;95447.75;;;3.05;100.00
36828;BME280;22766;48.042;11.192;2023-02-02T01:34:41;95447.75;;;3.05;100.00
36828;BME280;22766;48.042;11.192;2023-02-02T01:37:09;95451.75;;;3.09;100.00
36828;BME280;22766;48.042;11.192;2023-02-02T01:39:40;95462.88;;;3.08;100.00
36828;BME280;22766;48.042;11.192;2023-02-02T01:42:17;95451.44;;;3.14;100.00
36828;BME280;22766;48.042;11.192;2023-02-02T01:47:25;95448.75;;;3.03;100.00
36828;BME280;22766;48.042;11.192;2023-02-02T01:49:53;95455.78;;;2.99;100.00
36828;BME280;22766;48.042;11.192;2023-02-02T01:52:22;95462.47;;;2.88;100.00
36828;BME280;22766;48.042;11.192;2023-02-02T01:54:58;95445.56;;;2.87;100.00
36828;BME280;22766;48.042;11.192;2023-02-02T01:57:32;95452.09;;;2.91;100.00
36828;BME280;22766;48.042;11.192;2023-02-02T02:00:05;95442.19;;;2.86;100.00
36828;BME280;22766;48.042;11.192;2023-02-02T02:02:39;95452.84;;;2.78;100.00
36828;BME280;22766;48.042;11.192;2023-02-02T02:05:08;95454.22;;;2.70;100.00
36828;BME280;22766;48.042;11.192;2023-02-02T02:07:39;95454.09;;;2.85;100.00
36828;BME280;22766;48.042;11.192;2023-02-02T02:10:07;95458.56;;;2.82;100.00
36828;BME280;22766;48.042;11.192;2023-02-02T02:12:34;95456.91;;;2.95;100.00
36828;BME280;22766;48.042;11.192;2023-02-02T02:15:02;95449.56;;;2.91;100.00
36828;BME280;22766;48.042;11.192;2023-02-02T02:26:50;95445.44;;;2.88;100.00
36828;BME280;22766;48.042;11.192;2023-02-02T02:35:05;95449.13;;;2.70;100.00
36828;BME280;22766;48.042;11.192;2023-02-02T02:37:36;95439.78;;;2.56;100.00
36828;BME280;22766;48.042;11.192;2023-02-02T02:40:37;95422.16;;;2.80;100.00
36828;BME280;22766;48.042;11.192;2023-02-02T02:43:09;95426.53;;;2.78;100.00
36828;BME280;22766;48.042;11.192;2023-02-02T02:45:38;95420.53;;;2.79;100.00
36828;BME280;22766;48.042;11.192;2023-02-02T02:48:07;95425.22;;;2.85;100.00
36828;BME280;22766;48.042;11.192;2023-02-02T02:50:36;95429.69;;;2.81;100.00
36828;BME280;22766;48.042;11.192;2023-02-02T02:53:21;95437.97;;;2.85;100.00
36828;BME280;22766;48.042;11.192;2023-02-02T02:58:49;95436.63;;;2.79;100.00
36828;BME280;22766;48.042;11.192;2023-02-02T03:01:37;95436.59;;;2.94;100.00
36828;BME280;22766;48.042;11.192;2023-02-02T03:04:32;95427.69;;;2.87;100.00
36828;BME280;22766;48.042;11.192;2023-02-02T03:07:09;95430.56;;;2.95;100.00
36828;BME280;22766;48.042;11.192;2023-02-02T03:09:41;95427.25;;;2.80;100.00
36828;BME280;22766;48.042;11.192;2023-02-02T03:12:09;95426.97;;;2.84;100.00
36828;BME280;22766;48.042;11.192;2023-02-02T03:14:39;95424.53;;;2.83;100.00
36828;BME280;22766;48.042;11.192;2023-02-02T03:17:08;95422.41;;;2.90;100.00
36828;BME280;22766;48.042;11.192;2023-02-02T03:19:34;95421.50;;;2.91;100.00
36828;BME280;22766;48.042;11.192;2023-02-02T03:22:01;95416.06;;;2.82;100.00
36828;BME280;22766;48.042;11.192;2023-02-02T03:24:28;95420.44;;;2.80;100.00
36828;BME280;22766;48.042;11.192;2023-02-02T03:26:55;95422.28;;;2.91;100.00
36828;BME280;22766;48.042;11.192;2023-02-02T03:29:21;95422.59;;;2.87;100.00
36828;BME280;22766;48.042;11.192;2023-02-02T03:31:48;95408.50;;;2.81;100.00
36828;BME280;22766;48.042;11.192;2023-02-02T03:34:15;95415.75;;;2.87;100.00
36828;BME280;22766;48.042;11.192;2023-02-02T03:36:42;95425.56;;;2.93;100.00
36828;BME280;22766;48.042;11.192;2023-02-02T03:39:08;95431.69;;;2.91;100.00
36828;BME280;22766;48.042;11.192;2023-02-02T03:41:35;95433.44;;;2.90;100.00
36828;BME280;22766;48.042;11.192;2023-02-02T03:44:02;95438.22;;;2.95;100.00
36828;BME280;22766;48.042;11.192;2023-02-02T03:46:28;95432.22;;;2.96;100.00
36828;BME280;22766;48.042;11.192;2023-02-02T03:48:55;95430.56;;;2.95;100.00
36828;BME280;22766;48.042;11.192;2023-02-02T03:51:21;95422.13;;;2.94;100.00
36828;BME280;22766;48.042;11.192;2023-02-02T03:53:48;95425.94;;;2.87;100.00
36828;BME280;22766;48.042;11.192;2023-02-02T03:56:15;95447.28;;;2.86;100.00
36828;BME280;22766;48.042;11.192;2023-02-02T03:58:42;95435.97;;;2.90;100.00
36828;BME280;22766;48.042;11.192;2023-02-02T04:01:12;95435.66;;;2.95;100.00
36828;BME280;22766;48.042;11.192;2023-02-02T04:03:40;95436.38;;;2.97;100.00
36828;BME280;22766;48.042;11.192;2023-02-02T04:06:07;95429.09;;;3.05;100.00
36828;BME280;22766;48.042;11.192;2023-02-02T04:08:34;95446.22;;;3.03;100.00
36828;BME280;22766;48.042;11.192;2023-02-02T04:11:00;95452.97;;;3.04;100.00
36828;BME280;22766;48.042;11.192;2023-02-02T04:13:27;95434.09;;;3.06;100.00
36828;BME280;22766;48.042;11.192;2023-02-02T04:15:58;95441.66;;;3.08;100.00
36828;BME280;22766;48.042;11.192;2023-02-02T04:18:26;95444.84;;;3.11;100.00
36828;BME280;22766;48.042;11.192;2023-02-02T04:21:00;95434.91;;;3.07;100.00
36828;BME280;22766;48.042;11.192;2023-02-02T04:23:28;95435.53;;;3.10;100.00
36828;BME280;22766;48.042;11.192;2023-02-02T04:25:55;95451.75;;;3.09;100.00
36828;BME280;22766;48.042;11.192;2023-02-02T04:28:22;95438.75;;;3.00;100.00
36828;BME280;22766;48.042;11.192;2023-02-02T04:30:53;95443.97;;;2.98;100.00
36828;BME280;22766;48.042;11.192;2023-02-02T04:33:21;95447.06;;;3.16;100.00
36828;BME280;22766;48.042;11.192;2023-02-02T04:35:49;95443.38;;;3.07;100.00
36828;BME280;22766;48.042;11.192;2023-02-02T04:38:15;95442.75;;;3.04;100.00
36828;BME280;22766;48.042;11.192;2023-02-02T04:40:43;95456.28;;;2.92;100.00
36828;BME280;22766;48.042;11.192;2023-02-02T04:43:11;95457.59;;;3.11;100.00
36828;BME280;22766;48.042;11.192;2023-02-02T04:45:38;95454.84;;;3.14;100.00
36828;BME280;22766;48.042;11.192;2023-02-02T04:48:04;95450.25;;;3.19;100.00
36828;BME280;22766;48.042;11.192;2023-02-02T04:50:31;95448.00;;;3.15;100.00
36828;BME280;22766;48.042;11.192;2023-02-02T04:52:58;95453.84;;;3.17;100.00
36828;BME280;22766;48.042;11.192;2023-02-02T04:55:24;95470.41;;;3.10;100.00
36828;BME280;22766;48.042;11.192;2023-02-02T04:57:51;95447.38;;;3.11;100.00
36828;BME280;22766;48.042;11.192;2023-02-02T05:00:21;95452.56;;;3.10;100.00
36828;BME280;22766;48.042;11.192;2023-02-02T05:02:47;95460.44;;;3.19;100.00
36828;BME280;22766;48.042;11.192;2023-02-02T05:05:14;95452.25;;;3.28;100.00
36828;BME280;22766;48.042;11.192;2023-02-02T05:07:41;95458.34;;;3.26;100.00
36828;BME280;22766;48.042;11.192;2023-02-02T05:10:08;95470.09;;;3.28;100.00
36828;BME280;22766;48.042;11.192;2023-02-02T05:12:35;95465.06;;;3.27;100.00
36828;BME280;22766;48.042;11.192;2023-02-02T05:15:02;95465.19;;;3.25;100.00
36828;BME280;22766;48.042;11.192;2023-02-02T05:17:31;95467.94;;;3.22;100.00
36828;BME280;22766;48.042;11.192;2023-02-02T05:19:57;95474.59;;;3.25;100.00
36828;BME280;22766;48.042;11.192;2023-02-02T05:22:24;95471.31;;;3.23;100.00
36828;BME280;22766;48.042;11.192;2023-02-02T05:24:50;95480.16;;;3.17;100.00
36828;BME280;22766;48.042;11.192;2023-02-02T05:27:17;95473.66;;;3.26;100.00
36828;BME280;22766;48.042;11.192;2023-02-02T05:29:45;95475.13;;;3.16;100.00
36828;BME280;22766;48.042;11.192;2023-02-02T05:32:12;95468.78;;;3.35;100.00
36828;BME280;22766;48.042;11.192;2023-02-02T05:34:39;95471.72;;;3.29;100.00
36828;BME280;22766;48.042;11.192;2023-02-02T05:37:05;95472.31;;;3.20;100.00
36828;BME280;22766;48.042;11.192;2023-02-02T05:39:32;95471.94;;;3.26;100.00
36828;BME280;22766;48.042;11.192;2023-02-02T05:41:58;95471.94;;;3.26;100.00
36828;BME280;22766;48.042;11.192;2023-02-02T05:44:25;95474.66;;;3.23;100.00
36828;BME280;22766;48.042;11.192;2023-02-02T05:46:52;95488.59;;;3.32;100.00
36828;BME280;22766;48.042;11.192;2023-02-02T05:49:18;95475.22;;;3.28;100.00
36828;BME280;22766;48.042;11.192;2023-02-02T05:51:51;95481.44;;;3.37;100.00
36828;BME280;22766;48.042;11.192;2023-02-02T05:54:19;95479.03;;;3.21;100.00
36828;BME280;22766;48.042;11.192;2023-02-02T05:56:47;95482.56;;;3.33;100.00
36828;BME280;22766;48.042;11.192;2023-02-02T05:59:13;95468.44;;;3.27;100.00
36828;BME280;22766;48.042;11.192;2023-02-02T06:01:40;95482.66;;;3.31;100.00
36828;BME280;22766;48.042;11.192;2023-02-02T06:04:07;95477.13;;;3.25;100.00
36828;BME280;22766;48.042;11.192;2023-02-02T06:06:34;95477.63;;;3.17;100.00
36828;BME280;22766;48.042;11.192;2023-02-02T06:09:01;95483.91;;;3.12;100.00
36828;BME280;22766;48.042;11.192;2023-02-02T06:11:28;95497.19;;;3.17;100.00
36828;BME280;22766;48.042;11.192;2023-02-02T06:13:55;95490.91;;;3.22;100.00
36828;BME280;22766;48.042;11.192;2023-02-02T06:16:22;95482.78;;;3.16;100.00
36828;BME280;22766;48.042;11.192;2023-02-02T06:18:49;95507.56;;;3.14;100.00
36828;BME280;22766;48.042;11.192;2023-02-02T06:21:17;95504.50;;;3.09;100.00
36828;BME280;22766;48.042;11.192;2023-02-02T06:23:45;95509.59;;;3.09;100.00
36828;BME280;22766;48.042;11.192;2023-02-02T06:26:12;95511.31;;;3.08;100.00
36828;BME280;22766;48.042;11.192;2023-02-02T06:28:39;95517.25;;;3.09;100.00
36828;BME280;22766;48.042;11.192;2023-02-02T06:31:07;95504.06;;;3.02;100.00
36828;BME280;22766;48.042;11.192;2023-02-02T06:33:34;95520.81;;;3.06;100.00
36828;BME280;22766;48.042;11.192;2023-02-02T06:36:02;95521.25;;;3.13;100.00
36828;BME280;22766;48.042;11.192;2023-02-02T06:38:30;95525.53;;;3.12;100.00
36828;BME280;22766;48.042;11.192;2023-02-02T06:41:00;95521.97;;;3.15;100.00
36828;BME280;22766;48.042;11.192;2023-02-02T06:43:28;95530.16;;;3.20;100.00
36828;BME280;22766;48.042;11.192;2023-02-02T06:45:58;95527.81;;;3.17;100.00
36828;BME280;22766;48.042;11.192;2023-02-02T06:48:25;95536.91;;;3.21;100.00
36828;BME280;22766;48.042;11.192;2023-02-02T06:50:52;95534.53;;;3.18;100.00
36828;BME280;22766;48.042;11.192;2023-02-02T06:53:21;95542.03;;;3.21;100.00
36828;BME280;22766;48.042;11.192;2023-02-02T06:55:56;95535.16;;;3.21;100.00
36828;BME280;22766;48.042;11.192;2023-02-02T06:58:22;95536.19;;;3.19;100.00
36828;BME280;22766;48.042;11.192;2023-02-02T07:00:49;95539.13;;;3.13;100.00
36828;BME280;22766;48.042;11.192;2023-02-02T07:03:16;95534.38;;;3.21;100.00
36828;BME280;22766;48.042;11.192;2023-02-02T07:05:43;95543.13;;;3.17;100.00
36828;BME280;22766;48.042;11.192;2023-02-02T07:08:09;95538.53;;;3.22;100.00
36828;BME280;22766;48.042;11.192;2023-02-02T07:10:37;95537.66;;;3.23;100.00
36828;BME280;22766;48.042;11.192;2023-02-02T07:13:24;95534.44;;;3.19;100.00
36828;BME280;22766;48.042;11.192;2023-02-02T07:15:50;95538.75;;;3.19;100.00
36828;BME280;22766;48.042;11.192;2023-02-02T07:18:17;95554.31;;;3.14;100.00
36828;BME280;22766;48.042;11.192;2023-02-02T07:20:46;95552.94;;;3.23;100.00
36828;BME280;22766;48.042;11.192;2023-02-02T07:23:12;95550.47;;;3.21;100.00
36828;BME280;22766;48.042;11.192;2023-02-02T07:25:39;95557.69;;;3.15;100.00
36828;BME280;22766;48.042;11.192;2023-02-02T07:28:07;95551.88;;;3.13;100.00
36828;BME280;22766;48.042;11.192;2023-02-02T07:30:34;95554.16;;;3.17;100.00
36828;BME280;22766;48.042;11.192;2023-02-02T07:33:00;95554.56;;;3.24;100.00
36828;BME280;22766;48.042;11.192;2023-02-02T07:35:27;95550.31;;;3.24;100.00
36828;BME280;22766;48.042;11.192;2023-02-02T07:37:54;95556.38;;;3.36;100.00
36828;BME280;22766;48.042;11.192;2023-02-02T07:40:21;95553.09;;;3.34;100.00
36828;BME280;22766;48.042;11.192;2023-02-02T07:42:48;95563.47;;;3.31;100.00
36828;BME280;22766;48.042;11.192;2023-02-02T07:45:15;95561.75;;;3.31;100.00
36828;BME280;22766;48.042;11.192;2023-02-02T07:48:01;95571.06;;;3.32;100.00
36828;BME280;22766;48.042;11.192;2023-02-02T07:50:29;95571.59;;;3.23;100.00
36828;BME280;22766;48.042;11.192;2023-02-02T07:52:57;95562.75;;;3.29;100.00
36828;BME280;22766;48.042;11.192;2023-02-02T07:55:24;95551.50;;;3.19;100.00
36828;BME280;22766;48.042;11.192;2023-02-02T07:57:51;95551.75;;;3.28;100.00
36828;BME280;22766;48.042;11.192;2023-02-02T08:00:21;95556.78;;;3.16;100.00
36828;BME280;22766;48.042;11.192;2023-02-02T08:02:48;95558.78;;;3.25;100.00
36828;BME280;22766;48.042;11.192;2023-02-02T08:05:15;95562.81;;;3.15;100.00
36828;BME280;22766;48.042;11.192;2023-02-02T08:07:42;95567.97;;;3.27;100.00
36828;BME280;22766;48.042;11.192;2023-02-02T08:10:10;95564.59;;;3.27;100.00
36828;BME280;22766;48.042;11.192;2023-02-02T08:12:37;95573.53;;;3.20;100.00
36828;BME280;22766;48.042;11.192;2023-02-02T08:15:05;95567.69;;;3.18;100.00
36828;BME280;22766;48.042;11.192;2023-02-02T08:17:33;95574.09;;;2.97;100.00
36828;BME280;22766;48.042;11.192;2023-02-02T08:19:59;95570.38;;;3.02;100.00
36828;BME280;22766;48.042;11.192;2023-02-02T08:22:26;95575.31;;;2.91;100.00
36828;BME280;22766;48.042;11.192;2023-02-02T08:24:52;95575.75;;;2.98;100.00
36828;BME280;22766;48.042;11.192;2023-02-02T08:27:19;95563.13;;;2.96;100.00
36828;BME280;22766;48.042;11.192;2023-02-02T08:29:45;95583.94;;;3.03;100.00
36828;BME280;22766;48.042;11.192;2023-02-02T08:32:12;95600.06;;;3.03;100.00
36828;BME280;22766;48.042;11.192;2023-02-02T08:34:39;95600.53;;;2.96;100.00
36828;BME280;22766;48.042;11.192;2023-02-02T08:37:06;95593.97;;;2.92;100.00
36828;BME280;22766;48.042;11.192;2023-02-02T08:39:33;95599.19;;;2.90;100.00
36828;BME280;22766;48.042;11.192;2023-02-02T08:41:59;95611.28;;;3.01;100.00
36828;BME280;22766;48.042;11.192;2023-02-02T08:44:26;95604.34;;;3.03;100.00
36828;BME280;22766;48.042;11.192;2023-02-02T08:47:13;95610.22;;;2.91;100.00
36828;BME280;22766;48.042;11.192;2023-02-02T08:49:39;95603.00;;;2.83;100.00
36828;BME280;22766;48.042;11.192;2023-02-02T08:52:07;95608.75;;;2.87;100.00
36828;BME280;22766;48.042;11.192;2023-02-02T08:54:34;95610.22;;;2.91;100.00
36828;BME280;22766;48.042;11.192;2023-02-02T08:57:01;95620.31;;;2.92;100.00
36828;BME280;22766;48.042;11.192;2023-02-02T08:59:27;95612.03;;;2.89;100.00
36828;BME280;22766;48.042;11.192;2023-02-02T09:01:54;95606.47;;;2.82;100.00
36828;BME280;22766;48.042;11.192;2023-02-02T09:04:21;95615.47;;;2.88;100.00
36828;BME280;22766;48.042;11.192;2023-02-02T09:06:47;95615.56;;;2.86;100.00
36828;BME280;22766;48.042;11.192;2023-02-02T09:09:15;95629.75;;;2.76;100.00
36828;BME280;22766;48.042;11.192;2023-02-02T09:11:42;95610.00;;;2.79;100.00
36828;BME280;22766;48.042;11.192;2023-02-02T09:14:11;95628.94;;;2.90;100.00
36828;BME280;22766;48.042;11.192;2023-02-02T09:16:38;95618.91;;;3.01;100.00
36828;BME280;22766;48.042;11.192;2023-02-02T09:19:05;95630.41;;;3.08;100.00
36828;BME280;22766;48.042;11.192;2023-02-02T09:21:32;95624.84;;;3.01;100.00
36828;BME280;22766;48.042;11.192;2023-02-02T09:24:08;95621.75;;;3.10;100.00
36828;BME280;22766;48.042;11.192;2023-02-02T09:26:35;95627.13;;;3.20;100.00
36828;BME280;22766;48.042;11.192;2023-02-02T09:29:06;95635.31;;;3.25;100.00
36828;BME280;22766;48.042;11.192;2023-02-02T09:31:35;95635.41;;;3.23;100.00
36828;BME280;22766;48.042;11.192;2023-02-02T09:34:04;95640.16;;;3.15;100.00
36828;BME280;22766;48.042;11.192;2023-02-02T09:36:31;95643.50;;;3.16;100.00
36828;BME280;22766;48.042;11.192;2023-02-02T09:38:59;95646.88;;;3.02;100.00
36828;BME280;22766;48.042;11.192;2023-02-02T09:55:12;95666.31;;;2.91;100.00
36828;BME280;22766;48.042;11.192;2023-02-02T09:57:44;95664.72;;;3.02;100.00
36828;BME280;22766;48.042;11.192;2023-02-02T10:02:57;95664.47;;;3.07;100.00
36828;BME280;22766;48.042;11.192;2023-02-02T10:05:33;95652.19;;;3.13;100.00
36828;BME280;22766;48.042;11.192;2023-02-02T10:08:04;95659.28;;;3.22;100.00
36828;BME280;22766;48.042;11.192;2023-02-02T10:10:38;95670.31;;;3.23;100.00
36828;BME280;22766;48.042;11.192;2023-02-02T10:13:14;95661.19;;;3.33;100.00
36828;BME280;22766;48.042;11.192;2023-02-02T10:19:05;95664.91;;;3.41;100.00
36828;BME280;22766;48.042;11.192;2023-02-02T10:21:50;95657.91;;;3.45;100.00
36828;BME280;22766;48.042;11.192;2023-02-02T10:24:24;95646.31;;;3.39;100.00
36828;BME280;22766;48.042;11.192;2023-02-02T10:27:01;95655.06;;;3.35;100.00
36828;BME280;22766;48.042;11.192;2023-02-02T10:36:04;95647.06;;;3.41;100.00
36828;BME280;22766;48.042;11.192;2023-02-02T10:38:44;95653.97;;;3.39;100.00
36828;BME280;22766;48.042;11.192;2023-02-02T10:44:16;95650.88;;;3.48;100.00
36828;BME280;22766;48.042;11.192;2023-02-02T10:46:51;95658.63;;;3.47;100.00
36828;BME280;22766;48.042;11.192;2023-02-02T10:51:58;95676.03;;;3.54;100.00
36828;BME280;22766;48.042;11.192;2023-02-02T10:55:06;95639.31;;;3.43;100.00
36828;BME280;22766;48.042;11.192;2023-02-02T11:00:24;95647.59;;;3.46;100.00
36828;BME280;22766;48.042;11.192;2023-02-02T11:02:53;95638.31;;;3.45;100.00
36828;BME280;22766;48.042;11.192;2023-02-02T11:05:24;95628.34;;;3.55;100.00
36828;BME280;22766;48.042;11.192;2023-02-02T11:08:23;95635.81;;;3.44;100.00
36828;BME280;22766;48.042;11.192;2023-02-02T11:10:52;95621.97;;;3.48;100.00
36828;BME280;22766;48.042;11.192;2023-02-02T11:13:31;95624.09;;;3.41;100.00
36828;BME280;22766;48.042;11.192;2023-02-02T11:18:42;95644.94;;;3.48;100.00
36828;BME280;22766;48.042;11.192;2023-02-02T11:21:25;95620.50;;;3.44;100.00
36828;BME280;22766;48.042;11.192;2023-02-02T11:24:03;95632.41;;;3.57;100.00
36828;BME280;22766;48.042;11.192;2023-02-02T11:26:53;95631.06;;;3.52;100.00
36828;BME280;22766;48.042;11.192;2023-02-02T11:29:31;95636.19;;;3.52;100.00
36828;BME280;22766;48.042;11.192;2023-02-02T11:38:07;95633.03;;;3.61;100.00
36828;BME280;22766;48.042;11.192;2023-02-02T11:40:38;95625.59;;;3.58;100.00
36828;BME280;22766;48.042;11.192;2023-02-02T11:43:16;95635.78;;;3.72;100.00
36828;BME280;22766;48.042;11.192;2023-02-02T11:45:45;95637.59;;;3.70;100.00
36828;BME280;22766;48.042;11.192;2023-02-02T11:48:18;95645.31;;;3.83;100.00
36828;BME280;22766;48.042;11.192;2023-02-02T11:50:53;95646.63;;;3.75;100.00
36828;BME280;22766;48.042;11.192;2023-02-02T11:53:36;95634.22;;;3.69;100.00
36828;BME280;22766;48.042;11.192;2023-02-02T11:56:21;95636.25;;;3.64;100.00
36828;BME280;22766;48.042;11.192;2023-02-02T11:58:53;95641.50;;;3.75;100.00
36828;BME280;22766;48.042;11.192;2023-02-02T12:01:36;95642.03;;;3.80;100.00
36828;BME280;22766;48.042;11.192;2023-02-02T12:06:38;95644.66;;;3.52;100.00
36828;BME280;22766;48.042;11.192;2023-02-02T12:09:13;95643.03;;;3.51;100.00
36828;BME280;22766;48.042;11.192;2023-02-02T12:20:31;95647.31;;;3.51;100.00
36828;BME280;22766;48.042;11.192;2023-02-02T12:31:06;95639.09;;;3.46;100.00
36828;BME280;22766;48.042;11.192;2023-02-02T12:33:53;95642.69;;;3.43;100.00
36828;BME280;22766;48.042;11.192;2023-02-02T12:36:27;95654.09;;;3.38;100.00
36828;BME280;22766;48.042;11.192;2023-02-02T12:44:24;95641.31;;;3.10;100.00
36828;BME280;22766;48.042;11.192;2023-02-02T12:53:27;95630.31;;;2.95;100.00
36828;BME280;22766;48.042;11.192;2023-02-02T12:56:03;95637.88;;;2.97;100.00
36828;BME280;22766;48.042;11.192;2023-02-02T13:01:50;95649.81;;;2.96;100.00
36828;BME280;22766;48.042;11.192;2023-02-02T13:07:48;95642.72;;;3.01;100.00
36828;BME280;22766;48.042;11.192;2023-02-02T13:10:39;95631.31;;;3.07;100.00
36828;BME280;22766;48.042;11.192;2023-02-02T13:13:20;95631.78;;;3.13;100.00
36828;BME280;22766;48.042;11.192;2023-02-02T13:15:57;95635.84;;;3.16;100.00
36828;BME280;22766;48.042;11.192;2023-02-02T13:18:47;95644.25;;;3.18;100.00
36828;BME280;22766;48.042;11.192;2023-02-02T13:21:18;95655.28;;;3.18;100.00
36828;BME280;22766;48.042;11.192;2023-02-02T13:23:49;95662.66;;;3.23;100.00
36828;BME280;22766;48.042;11.192;2023-02-02T13:26:21;95672.75;;;3.10;100.00
36828;BME280;22766;48.042;11.192;2023-02-02T13:28:54;95677.31;;;3.05;100.00
36828;BME280;22766;48.042;11.192;2023-02-02T13:31:31;95680.88;;;3.17;100.00
36828;BME280;22766;48.042;11.192;2023-02-02T13:34:10;95681.63;;;3.19;100.00
36828;BME280;22766;48.042;11.192;2023-02-02T13:36:43;95677.75;;;3.12;100.00
36828;BME280;22766;48.042;11.192;2023-02-02T13:39:21;95693.47;;;3.06;100.00
36828;BME280;22766;48.042;11.192;2023-02-02T13:41:48;95687.81;;;3.15;100.00
36828;BME280;22766;48.042;11.192;2023-02-02T13:44:34;95689.25;;;3.05;100.00
36828;BME280;22766;48.042;11.192;2023-02-02T13:47:11;95699.94;;;3.11;100.00
36828;BME280;22766;48.042;11.192;2023-02-02T13:49:48;95691.72;;;3.06;100.00
36828;BME280;22766;48.042;11.192;2023-02-02T14:00:26;95718.00;;;2.93;100.00
36828;BME280;22766;48.042;11.192;2023-02-02T14:06:01;95718.13;;;3.05;100.00
36828;BME280;22766;48.042;11.192;2023-02-02T14:08:29;95721.88;;;3.00;100.00
36828;BME280;22766;48.042;11.192;2023-02-02T14:10:58;95712.75;;;2.96;100.00
36828;BME280;22766;48.042;11.192;2023-02-02T14:19:01;95727.59;;;3.03;100.00
36828;BME280;22766;48.042;11.192;2023-02-02T14:26:57;95729.81;;;3.09;100.00
36828;BME280;22766;48.042;11.192;2023-02-02T14:34:46;95727.50;;;3.05;100.00
36828;BME280;22766;48.042;11.192;2023-02-02T14:48:00;95731.34;;;2.98;100.00
36828;BME280;22766;48.042;11.192;2023-02-02T14:58:35;95753.22;;;3.02;100.00
36828;BME280;22766;48.042;11.192;2023-02-02T15:06:12;95742.44;;;2.82;100.00
36828;BME280;22766;48.042;11.192;2023-02-02T15:08:39;95728.50;;;3.02;100.00
36828;BME280;22766;48.042;11.192;2023-02-02T15:11:07;95740.81;;;3.10;100.00
36828;BME280;22766;48.042;11.192;2023-02-02T15:14:00;95746.19;;;3.05;100.00
36828;BME280;22766;48.042;11.192;2023-02-02T15:16:34;95758.22;;;3.03;100.00
36828;BME280;22766;48.042;11.192;2023-02-02T15:19:13;95762.78;;;3.12;100.00
36828;BME280;22766;48.042;11.192;2023-02-02T15:21:44;95762.25;;;3.07;100.00
36828;BME280;22766;48.042;11.192;2023-02-02T15:24:18;95764.16;;;3.04;100.00
36828;BME280;22766;48.042;11.192;2023-02-02T15:26:47;95769.16;;;3.05;100.00
36828;BME280;22766;48.042;11.192;2023-02-02T15:29:32;95768.97;;;3.08;100.00
36828;BME280;22766;48.042;11.192;2023-02-02T15:32:02;95757.78;;;3.11;100.00
36828;BME280;22766;48.042;11.192;2023-02-02T15:34:43;95760.88;;;3.02;100.00
36828;BME280;22766;48.042;11.192;2023-02-02T15:37:18;95763.97;;;3.07;100.00
36828;BME280;22766;48.042;11.192;2023-02-02T15:39:49;95763.72;;;3.11;100.00